Weather

Webcam

Metar / TAF

Zurich

  • LSZH 200450Z 20005KT 8000 -SN FEW008 SCT013 BKN021 01/M00 Q1026 NOSIG

  • TAF LSZH 200525Z 2006/2112 VRB02KT 9999 BKN025 TX04/2013Z TN01/2006Z TNM02/2106Z TEMPO 2006/2009 3000 -SN BKN007 BECMG 2007/2009 27010KT PROB30 TEMPO 2013/2018 3000 -SHSN BKN012 BECMG 2017/2019 VRB02KT PROB30 2019/2024 1200 BCFG

Dübendorf

  • LSMD 200550Z VRB02KT 7000 -RA SCT017 OVC027 02/M01 Q1026 RMK BLU

  • TAF LSMD 191625Z 1917/2023 24003KT 9999 BKN020 TEMPO 2000/2009 3000 -SN BKN007 PROB30 TEMPO 2003/2008 BKN004 TEMPO 2008/2017 28010KT PROB30 TEMPO 2012/2018 3000 -SHSN BKN012

St. Gallen

  • LSZR 200550Z 09005KT 9000 -SHRASN FEW020 BKN030 01/01 Q1026 NOSIG RMK A

  • TAF AMD LSZR 222054Z 2220/2224 CNL

Bern

  • LSZB 200550Z 09003KT 9999 BKN042 01/M01 Q1027 RESN NOSIG

  • TAF AMD TAF AMD LSZB 222054Z 2220/2224 CNL

Locarno

  • LSZL 200550Z AUTO VRB02KT 9999NDV SCT130 BKN160 M02/M03 Q1021 RMK

  • TAF AMD TAF AMD LSZL 150713Z 1509/1521 VRB03KT 9999 SCT050

Samedan

  • LSZS 200550Z AUTO 14002KT 9999 SCT049 M07/M10 Q1018 RESN

  • TAF AMD LSZS 222054Z 2220/2224 CNL

Geneve

  • LSGG 200550Z VRB02KT 9999 FEW030 BKN045 01/M02 Q1028 NOSIG

  • TAF LSGG 200525Z 2006/2112 VRB02KT 9999 BKN050 TX05/2014Z TNM00/2006Z TNM00/2106Z PROB30 TEMPO 2006/2010 4000 -SN BKN014 BECMG 2011/2013 03007KT BECMG 2109/2112 03017G27KT

Weather-Charts



Wind at FL50: 06:00z, 09:00z, 12:00z, 15:00z and 18:00z